createdAt,value
2023-03-17T00:00:37.932Z,57.28
2023-03-17T00:03:04.282Z,56.98
2023-03-17T00:05:30.601Z,57.00
2023-03-17T00:07:56.910Z,56.95
2023-03-17T00:10:23.218Z,57.13
2023-03-17T00:12:49.545Z,57.24
2023-03-17T00:15:15.884Z,57.26
2023-03-17T00:17:42.194Z,57.90
2023-03-17T00:20:08.500Z,58.04
2023-03-17T00:22:34.811Z,57.98
2023-03-17T00:25:01.134Z,57.99
2023-03-17T00:27:27.464Z,58.14
2023-03-17T00:29:53.785Z,58.37
2023-03-17T00:32:20.125Z,58.15
2023-03-17T00:34:46.446Z,58.23
2023-03-17T00:37:12.769Z,57.97
2023-03-17T00:39:39.109Z,57.94
2023-03-17T00:42:05.430Z,57.66
2023-03-17T00:44:31.755Z,57.91
2023-03-17T00:46:58.175Z,58.12
2023-03-17T00:49:24.522Z,58.05
2023-03-17T00:51:50.898Z,57.56
2023-03-17T00:54:17.258Z,57.46
2023-03-17T00:56:43.572Z,56.85
2023-03-17T00:59:09.884Z,56.98
2023-03-17T01:01:36.253Z,56.71
2023-03-17T01:04:02.599Z,56.79
2023-03-17T01:06:28.916Z,56.71
2023-03-17T01:08:55.461Z,56.73
2023-03-17T01:11:21.777Z,56.36
2023-03-17T01:13:48.101Z,56.49
2023-03-17T01:16:14.468Z,56.55
2023-03-17T01:18:40.849Z,56.64
2023-03-17T01:21:07.171Z,57.02
2023-03-17T01:23:33.494Z,56.80
2023-03-17T01:25:59.833Z,56.93
2023-03-17T01:28:26.161Z,57.07
2023-03-17T01:30:52.484Z,57.52
2023-03-17T01:33:18.808Z,57.54
2023-03-17T01:35:45.134Z,57.73
2023-03-17T01:38:11.440Z,57.78
2023-03-17T01:40:37.739Z,57.52
2023-03-17T01:43:04.046Z,57.53
2023-03-17T01:45:30.382Z,57.11
2023-03-17T01:47:56.741Z,57.20
2023-03-17T01:50:23.073Z,56.23
2023-03-17T01:52:49.390Z,55.95
2023-03-17T01:55:15.706Z,55.77
2023-03-17T01:57:42.035Z,55.71
2023-03-17T02:00:08.363Z,55.58
2023-03-17T02:02:34.699Z,54.68
2023-03-17T02:05:01.016Z,54.61
2023-03-17T02:07:27.320Z,54.31
2023-03-17T02:09:53.649Z,54.25
2023-03-17T02:12:19.964Z,54.13
2023-03-17T02:14:46.298Z,53.85
2023-03-17T02:17:12.614Z,54.25
2023-03-17T02:19:38.962Z,54.06
2023-03-17T02:22:05.308Z,54.36
2023-03-17T02:24:31.613Z,54.20
2023-03-17T02:26:57.911Z,54.21
2023-03-17T02:29:24.229Z,54.22
2023-03-17T02:31:50.542Z,54.40
2023-03-17T02:34:16.852Z,54.53
2023-03-17T02:36:43.198Z,54.68
2023-03-17T02:39:09.561Z,54.54
2023-03-17T02:41:35.861Z,54.85
2023-03-17T02:44:02.188Z,54.51
2023-03-17T02:46:28.610Z,54.26
2023-03-17T02:48:54.967Z,54.33
2023-03-17T02:51:21.284Z,55.17
2023-03-17T02:53:47.608Z,55.72
2023-03-17T02:56:13.926Z,55.92
2023-03-17T02:58:40.280Z,55.57
2023-03-17T03:01:06.705Z,55.31
2023-03-17T03:03:33.066Z,55.19
2023-03-17T03:06:01.541Z,55.43
2023-03-17T03:08:29.055Z,55.55
2023-03-17T03:10:55.402Z,55.03
2023-03-17T03:13:21.706Z,55.19
2023-03-17T03:15:48.141Z,54.80
2023-03-17T03:18:14.484Z,54.53
2023-03-17T03:20:40.788Z,54.92
2023-03-17T03:23:07.111Z,55.21
2023-03-17T03:25:33.437Z,55.20
2023-03-17T03:27:59.755Z,55.66
2023-03-17T03:30:26.066Z,55.73
2023-03-17T03:32:52.438Z,55.63
2023-03-17T03:35:18.809Z,55.88
2023-03-17T03:37:45.114Z,56.58
2023-03-17T03:40:11.438Z,55.98
2023-03-17T03:42:37.739Z,56.32
2023-03-17T03:45:04.040Z,56.27
2023-03-17T03:47:30.365Z,56.01
2023-03-17T03:49:56.708Z,56.41
2023-03-17T03:52:23.016Z,56.27
2023-03-17T03:54:49.310Z,56.49
2023-03-17T03:57:15.632Z,56.20
2023-03-17T03:59:41.959Z,56.02
2023-03-17T04:02:09.587Z,55.88
2023-03-17T04:04:36.148Z,56.51
2023-03-17T04:07:02.508Z,56.01
2023-03-17T04:09:28.816Z,55.90
2023-03-17T04:11:55.119Z,56.65
2023-03-17T04:14:21.445Z,56.39
2023-03-17T04:16:47.802Z,56.80
2023-03-17T04:19:14.165Z,55.92
2023-03-17T04:21:40.510Z,56.02
2023-03-17T04:24:06.827Z,56.36
2023-03-17T04:26:33.147Z,56.55
2023-03-17T04:28:59.459Z,57.01
2023-03-17T04:31:25.883Z,56.97
2023-03-17T04:33:52.241Z,56.95
2023-03-17T04:36:18.556Z,57.37
2023-03-17T04:38:44.888Z,57.29
2023-03-17T04:41:11.214Z,57.26
2023-03-17T04:43:37.530Z,57.10
2023-03-17T04:46:03.893Z,56.59
2023-03-17T04:48:30.254Z,56.90
2023-03-17T04:50:56.562Z,57.03
2023-03-17T04:53:22.865Z,56.49
2023-03-17T04:55:49.232Z,56.54
2023-03-17T04:58:29.558Z,56.11
2023-03-17T05:00:56.569Z,54.14
2023-03-17T05:03:27.216Z,54.92
2023-03-17T05:05:54.181Z,54.59
2023-03-17T05:08:20.507Z,54.54
2023-03-17T05:10:46.818Z,55.48
2023-03-17T05:13:13.154Z,55.80
2023-03-17T05:15:39.482Z,56.37
2023-03-17T05:18:05.819Z,55.80
2023-03-17T05:20:32.563Z,56.00
2023-03-17T05:22:59.116Z,55.83
2023-03-17T05:25:25.430Z,54.89
2023-03-17T05:27:51.757Z,55.78
2023-03-17T05:30:18.063Z,55.75
2023-03-17T05:32:44.423Z,55.98
2023-03-17T05:35:10.754Z,56.00
2023-03-17T05:37:37.061Z,56.76
2023-03-17T05:40:03.388Z,56.52
2023-03-17T05:42:29.702Z,56.70
2023-03-17T05:44:56.034Z,57.48
2023-03-17T05:47:22.340Z,57.95
2023-03-17T05:49:48.643Z,57.56
2023-03-17T05:52:14.966Z,57.62
2023-03-17T05:54:41.272Z,57.27
2023-03-17T05:57:07.585Z,57.48
2023-03-17T05:59:33.925Z,57.81
2023-03-17T06:02:00.321Z,58.09
2023-03-17T06:04:26.683Z,57.36
2023-03-17T06:06:53.024Z,57.86
2023-03-17T06:09:19.363Z,57.63
2023-03-17T06:11:45.691Z,58.17
2023-03-17T06:14:12.034Z,58.37
2023-03-17T06:16:38.352Z,58.38
2023-03-17T06:19:04.719Z,58.26
2023-03-17T06:21:31.063Z,58.82
2023-03-17T06:23:57.386Z,58.71
2023-03-17T06:26:23.713Z,59.13
2023-03-17T06:28:50.045Z,58.78
2023-03-17T06:31:16.430Z,58.50
2023-03-17T06:33:42.762Z,59.02
2023-03-17T06:36:09.176Z,58.65
2023-03-17T06:38:35.561Z,58.36
2023-03-17T06:41:01.886Z,58.49
2023-03-17T06:43:28.203Z,58.61
2023-03-17T06:45:54.521Z,58.77
2023-03-17T06:48:20.836Z,58.93
2023-03-17T06:50:47.145Z,58.22
2023-03-17T06:53:13.455Z,58.05
2023-03-17T06:55:39.790Z,60.28
2023-03-17T06:58:06.105Z,63.85
2023-03-17T07:00:32.419Z,63.19
2023-03-17T07:02:58.732Z,61.76
2023-03-17T07:05:25.056Z,61.51
2023-03-17T07:07:51.383Z,60.84
2023-03-17T07:10:17.701Z,59.77
2023-03-17T07:12:44.006Z,60.39
2023-03-17T07:15:10.346Z,59.32
2023-03-17T07:17:36.683Z,58.30
2023-03-17T07:20:03.019Z,58.31
2023-03-17T07:22:29.351Z,56.69
2023-03-17T07:24:55.664Z,55.80
2023-03-17T07:27:23.147Z,55.08
2023-03-17T07:29:49.569Z,54.62
2023-03-17T07:32:15.997Z,54.84
2023-03-17T07:34:42.319Z,53.41
2023-03-17T07:37:08.642Z,54.03
2023-03-17T07:39:34.978Z,53.98
2023-03-17T07:42:01.294Z,54.23
2023-03-17T07:44:27.652Z,54.07
2023-03-17T07:46:53.968Z,52.72
2023-03-17T07:49:34.045Z,51.65
2023-03-17T07:52:04.688Z,51.15
2023-03-17T07:54:31.000Z,53.61
2023-03-17T07:56:57.340Z,53.42
2023-03-17T07:59:23.652Z,53.66
2023-03-17T08:01:50.046Z,51.92
2023-03-17T08:04:16.366Z,53.15
2023-03-17T08:06:42.693Z,53.48
2023-03-17T08:09:09.010Z,51.62
2023-03-17T08:11:35.324Z,51.29
2023-03-17T08:14:01.652Z,51.30
2023-03-17T08:16:28.033Z,51.46
2023-03-17T08:18:54.396Z,51.48
2023-03-17T08:21:20.738Z,51.77
2023-03-17T08:23:47.068Z,50.98
2023-03-17T08:26:13.439Z,52.86
2023-03-17T08:28:39.788Z,52.59
2023-03-17T08:31:06.207Z,51.64
2023-03-17T08:33:32.616Z,51.80
2023-03-17T08:35:59.077Z,51.60
2023-03-17T08:38:25.445Z,51.78
2023-03-17T08:40:51.770Z,51.06
2023-03-17T08:43:18.106Z,50.95
2023-03-17T08:45:44.431Z,51.18
2023-03-17T08:48:10.736Z,50.41
2023-03-17T08:50:37.041Z,50.50
2023-03-17T08:53:03.370Z,51.33
2023-03-17T08:55:29.695Z,50.84
2023-03-17T08:57:56.013Z,50.99
2023-03-17T09:00:22.334Z,51.29
2023-03-17T09:02:48.710Z,49.97
2023-03-17T09:05:15.084Z,49.42
2023-03-17T09:07:41.506Z,50.67
2023-03-17T09:10:07.890Z,50.21
2023-03-17T09:12:34.388Z,50.15
2023-03-17T09:15:00.757Z,49.38
2023-03-17T09:17:27.079Z,50.37
2023-03-17T09:19:53.400Z,51.33
2023-03-17T09:22:19.710Z,50.09
2023-03-17T09:24:46.019Z,49.77
2023-03-17T09:27:12.364Z,48.99
2023-03-17T09:29:38.684Z,49.70
2023-03-17T09:32:05.013Z,48.20
2023-03-17T09:34:31.323Z,49.08
2023-03-17T09:36:57.661Z,49.17
2023-03-17T09:39:24.000Z,49.05
2023-03-17T09:41:50.335Z,49.53
2023-03-17T09:44:16.670Z,50.63
2023-03-17T09:46:43.074Z,50.21
2023-03-17T09:49:09.513Z,49.79
2023-03-17T09:51:35.844Z,48.30
2023-03-17T09:54:02.183Z,48.36
2023-03-17T09:56:28.522Z,48.72
2023-03-17T09:58:54.853Z,48.82
2023-03-17T10:01:21.186Z,47.29
2023-03-17T10:03:47.512Z,47.65
2023-03-17T10:06:13.824Z,47.59
2023-03-17T10:08:40.147Z,47.97
2023-03-17T10:11:06.450Z,47.31
2023-03-17T10:13:32.777Z,48.30
2023-03-17T10:15:59.100Z,46.91
2023-03-17T10:18:25.418Z,48.17
2023-03-17T10:20:51.825Z,46.53
2023-03-17T10:23:18.169Z,47.93
2023-03-17T10:25:44.509Z,46.92
2023-03-17T10:28:10.845Z,45.98
2023-03-17T10:30:37.191Z,46.55
2023-03-17T10:33:03.590Z,46.62
2023-03-17T10:35:30.187Z,46.69
2023-03-17T10:38:11.761Z,47.05
2023-03-17T10:40:40.013Z,46.46
2023-03-17T10:43:06.319Z,45.56
2023-03-17T10:45:32.619Z,46.28
2023-03-17T10:47:58.947Z,46.17
2023-03-17T10:50:25.287Z,46.30
2023-03-17T10:52:51.623Z,47.27
2023-03-17T10:55:17.940Z,43.92
2023-03-17T10:57:44.264Z,44.11
2023-03-17T11:00:10.594Z,44.22
2023-03-17T11:02:36.917Z,43.28
2023-03-17T11:05:03.223Z,44.25
2023-03-17T11:07:29.556Z,44.35
2023-03-17T11:09:55.891Z,42.66
2023-03-17T11:12:22.230Z,43.12
2023-03-17T11:14:48.548Z,43.68
2023-03-17T11:17:14.866Z,43.16
2023-03-17T11:19:41.186Z,44.11
2023-03-17T11:22:07.501Z,43.13
2023-03-17T11:24:33.849Z,42.86
2023-03-17T11:27:00.183Z,43.75
2023-03-17T11:29:26.493Z,43.25
2023-03-17T11:31:52.825Z,42.96
2023-03-17T11:34:19.157Z,42.33
2023-03-17T11:36:45.480Z,42.30
2023-03-17T11:39:11.829Z,42.01
2023-03-17T11:41:38.165Z,41.58
2023-03-17T11:44:04.482Z,42.02
2023-03-17T11:46:30.894Z,40.80
2023-03-17T11:48:57.268Z,42.74
2023-03-17T11:51:23.578Z,42.44
2023-03-17T11:53:49.899Z,42.38
2023-03-17T11:56:16.208Z,41.73
2023-03-17T11:58:42.542Z,40.76
2023-03-17T12:01:08.903Z,39.92
2023-03-17T12:03:35.287Z,42.53
2023-03-17T12:06:01.624Z,41.70
2023-03-17T12:08:27.924Z,42.01
2023-03-17T12:10:54.255Z,41.24
2023-03-17T12:13:20.600Z,40.08
2023-03-17T12:15:46.949Z,40.16
2023-03-17T12:18:13.337Z,40.53
2023-03-17T12:20:39.668Z,40.50
2023-03-17T12:23:05.978Z,40.64
2023-03-17T12:25:32.285Z,42.22
2023-03-17T12:27:58.610Z,41.60
2023-03-17T12:30:24.921Z,42.30
2023-03-17T12:32:51.327Z,41.96
2023-03-17T12:35:17.653Z,42.92
2023-03-17T12:37:43.955Z,42.58
2023-03-17T12:40:10.296Z,42.32
2023-03-17T12:42:36.608Z,42.61
2023-03-17T12:45:02.961Z,41.69
2023-03-17T12:47:29.276Z,41.85
2023-03-17T12:49:55.582Z,42.43
2023-03-17T12:52:21.930Z,43.01
2023-03-17T12:54:48.243Z,42.06
2023-03-17T12:57:14.602Z,41.20
2023-03-17T12:59:40.906Z,41.78
2023-03-17T13:02:07.333Z,41.27
2023-03-17T13:04:33.677Z,39.62
2023-03-17T13:06:59.988Z,41.08
2023-03-17T13:09:26.304Z,40.72
2023-03-17T13:11:52.618Z,39.84
2023-03-17T13:14:18.926Z,39.75
2023-03-17T13:16:45.241Z,40.50
2023-03-17T13:19:11.548Z,41.03
2023-03-17T13:21:37.874Z,40.68
2023-03-17T13:24:04.178Z,39.47
2023-03-17T13:26:30.483Z,40.31
2023-03-17T13:28:56.844Z,41.04
2023-03-17T13:31:23.224Z,38.16
2023-03-17T13:33:49.658Z,40.19
2023-03-17T13:36:15.978Z,40.48
2023-03-17T13:38:42.302Z,38.96
2023-03-17T13:41:08.642Z,39.69
2023-03-17T13:43:34.995Z,39.25
2023-03-17T13:46:01.315Z,39.02
2023-03-17T13:48:27.630Z,39.84
2023-03-17T13:50:53.940Z,39.02
2023-03-17T13:53:20.285Z,37.67
2023-03-17T13:55:46.669Z,38.83
2023-03-17T13:58:13.000Z,38.98
2023-03-17T14:00:39.376Z,38.89
2023-03-17T14:03:05.714Z,39.96
2023-03-17T14:05:32.466Z,39.25
2023-03-17T14:07:59.059Z,37.63
2023-03-17T14:10:25.393Z,37.70
2023-03-17T14:12:51.720Z,37.69
2023-03-17T14:15:18.047Z,36.63
2023-03-17T14:17:44.382Z,39.02
2023-03-17T14:20:10.687Z,39.38
2023-03-17T14:22:37.015Z,39.30
2023-03-17T14:25:03.345Z,38.64
2023-03-17T14:27:29.670Z,39.98
2023-03-17T14:29:56.004Z,40.06
2023-03-17T14:32:22.343Z,39.39
2023-03-17T14:34:48.664Z,39.48
2023-03-17T14:37:14.974Z,39.09
2023-03-17T14:39:41.291Z,39.60
2023-03-17T14:42:07.598Z,38.62
2023-03-17T14:44:33.928Z,39.08
2023-03-17T14:47:00.246Z,38.48
2023-03-17T14:49:26.563Z,37.93
2023-03-17T14:51:52.890Z,39.00
2023-03-17T14:54:19.239Z,37.82
2023-03-17T14:56:45.543Z,38.85
2023-03-17T14:59:11.851Z,38.30
2023-03-17T15:01:38.195Z,37.61
2023-03-17T15:04:04.509Z,37.50
2023-03-17T15:06:30.834Z,36.88
2023-03-17T15:08:57.150Z,36.97
2023-03-17T15:11:23.491Z,37.42
2023-03-17T15:13:49.798Z,37.22
2023-03-17T15:16:16.165Z,35.73
2023-03-17T15:18:42.549Z,36.35
2023-03-17T15:21:08.859Z,36.02
2023-03-17T15:23:35.162Z,36.82
2023-03-17T15:26:01.490Z,38.15
2023-03-17T15:28:27.829Z,39.28
2023-03-17T15:30:54.601Z,40.51
2023-03-17T15:33:21.248Z,39.72
2023-03-17T15:35:47.584Z,38.17
2023-03-17T15:38:13.960Z,39.18
2023-03-17T15:40:40.288Z,39.71
2023-03-17T15:43:06.613Z,40.57
2023-03-17T15:45:32.922Z,39.21
2023-03-17T15:47:59.245Z,38.12
2023-03-17T15:50:25.556Z,39.43
2023-03-17T15:52:51.870Z,39.50
2023-03-17T15:55:18.184Z,39.84
2023-03-17T15:57:53.855Z,38.57
2023-03-17T16:00:21.241Z,37.51
2023-03-17T16:02:47.571Z,38.94
2023-03-17T16:05:13.897Z,39.19
2023-03-17T16:07:40.223Z,39.25
2023-03-17T16:10:06.565Z,39.15
2023-03-17T16:12:32.879Z,39.29
2023-03-17T16:15:00.700Z,40.70
2023-03-17T16:17:28.241Z,39.89
2023-03-17T16:19:54.561Z,40.35
2023-03-17T16:22:20.886Z,41.68
2023-03-17T16:24:47.213Z,41.00
2023-03-17T16:27:13.526Z,39.15
2023-03-17T16:29:39.853Z,38.89
2023-03-17T16:32:06.164Z,38.95
2023-03-17T16:34:32.489Z,38.78
2023-03-17T16:36:58.819Z,38.75
2023-03-17T16:39:25.154Z,38.09
2023-03-17T16:41:51.516Z,37.90
2023-03-17T16:44:17.878Z,37.05
2023-03-17T16:46:44.222Z,37.08
2023-03-17T16:49:10.549Z,37.00
2023-03-17T16:51:36.872Z,37.70
2023-03-17T16:54:03.203Z,37.31
2023-03-17T16:56:29.564Z,37.58
2023-03-17T16:58:55.932Z,37.33
2023-03-17T17:01:22.280Z,37.80
2023-03-17T17:03:48.641Z,38.04
2023-03-17T17:06:14.958Z,37.93
2023-03-17T17:08:41.271Z,38.48
2023-03-17T17:11:07.664Z,38.70
2023-03-17T17:13:34.020Z,38.33
2023-03-17T17:16:00.416Z,38.41
2023-03-17T17:18:26.781Z,37.97
2023-03-17T17:20:53.136Z,38.03
2023-03-17T17:23:19.485Z,38.20
2023-03-17T17:25:45.822Z,39.07
2023-03-17T17:28:12.210Z,40.61
2023-03-17T17:30:38.549Z,41.09
2023-03-17T17:33:04.941Z,42.21
2023-03-17T17:35:32.714Z,43.13
2023-03-17T17:37:59.333Z,43.72
2023-03-17T17:40:25.663Z,45.13
2023-03-17T17:42:51.971Z,45.67
2023-03-17T17:45:18.270Z,45.23
2023-03-17T17:47:44.590Z,46.14
2023-03-17T17:50:10.910Z,45.87
2023-03-17T17:52:37.237Z,46.03
2023-03-17T17:55:03.565Z,47.60
2023-03-17T17:57:29.874Z,46.87
2023-03-17T17:59:56.175Z,47.41
2023-03-17T18:02:22.486Z,46.81
2023-03-17T18:04:48.844Z,46.78
2023-03-17T18:07:15.197Z,46.82
2023-03-17T18:09:41.514Z,47.36
2023-03-17T18:12:07.841Z,47.86
2023-03-17T18:14:34.148Z,47.91
2023-03-17T18:17:00.456Z,47.65
2023-03-17T18:19:26.773Z,47.70
2023-03-17T18:21:53.079Z,47.18
2023-03-17T18:24:19.397Z,47.42
2023-03-17T18:26:45.705Z,47.14
2023-03-17T18:29:12.046Z,46.91
2023-03-17T18:31:38.437Z,46.56
2023-03-17T18:34:04.778Z,46.51
2023-03-17T18:36:31.115Z,46.30
2023-03-17T18:38:57.434Z,46.45
2023-03-17T18:41:23.749Z,46.17
2023-03-17T18:43:50.078Z,45.81
2023-03-17T18:46:16.501Z,46.36
2023-03-17T18:48:42.834Z,46.84
2023-03-17T18:51:09.141Z,46.71
2023-03-17T18:53:35.472Z,46.71
2023-03-17T18:56:01.791Z,44.56
2023-03-17T18:58:28.118Z,43.17
2023-03-17T19:00:54.498Z,42.61
2023-03-17T19:03:20.931Z,42.48
2023-03-17T19:05:47.285Z,42.85
2023-03-17T19:08:13.614Z,43.16
2023-03-17T19:10:39.939Z,43.37
2023-03-17T19:13:06.621Z,43.19
2023-03-17T19:15:33.650Z,43.49
2023-03-17T19:17:59.958Z,44.55
2023-03-17T19:20:26.286Z,44.91
2023-03-17T19:22:52.591Z,45.49
2023-03-17T19:25:18.898Z,45.61
2023-03-17T19:27:45.237Z,46.27
2023-03-17T19:30:11.576Z,46.90
2023-03-17T19:32:37.977Z,46.21
2023-03-17T19:35:04.329Z,46.24
2023-03-17T19:37:30.639Z,46.01
2023-03-17T19:39:56.957Z,46.61
2023-03-17T19:42:23.287Z,46.90
2023-03-17T19:44:49.606Z,46.43
2023-03-17T19:47:15.937Z,46.14
2023-03-17T19:49:42.275Z,45.95
2023-03-17T19:52:08.608Z,45.79
2023-03-17T19:54:34.915Z,46.36
2023-03-17T19:57:01.249Z,46.42
2023-03-17T19:59:27.554Z,47.42
2023-03-17T20:01:53.901Z,47.84
2023-03-17T20:04:20.256Z,46.77
2023-03-17T20:06:46.597Z,45.88
2023-03-17T20:09:12.912Z,46.29
2023-03-17T20:11:39.242Z,46.55
2023-03-17T20:14:05.578Z,46.86
2023-03-17T20:16:31.899Z,47.45
2023-03-17T20:18:58.242Z,47.56
2023-03-17T20:21:24.560Z,48.03
2023-03-17T20:23:50.870Z,47.74
2023-03-17T20:26:17.196Z,47.10
2023-03-17T20:28:43.513Z,46.86
2023-03-17T20:31:09.959Z,46.86
2023-03-17T20:33:36.303Z,46.58
2023-03-17T20:36:02.733Z,48.40
2023-03-17T20:38:29.064Z,47.75
2023-03-17T20:40:55.371Z,47.19
2023-03-17T20:43:21.676Z,47.03
2023-03-17T20:45:48.002Z,46.09
2023-03-17T20:48:14.336Z,45.60
2023-03-17T20:50:40.673Z,45.93
2023-03-17T20:53:07.016Z,46.04
2023-03-17T20:55:33.342Z,45.67
2023-03-17T20:57:59.800Z,46.42
2023-03-17T21:00:26.234Z,46.71
2023-03-17T21:02:52.546Z,47.06
2023-03-17T21:05:18.967Z,47.04
2023-03-17T21:07:45.293Z,46.81
2023-03-17T21:10:11.613Z,45.57
2023-03-17T21:12:37.931Z,44.75
2023-03-17T21:15:04.238Z,45.15
2023-03-17T21:17:30.565Z,45.12
2023-03-17T21:19:56.885Z,44.17
2023-03-17T21:22:23.210Z,44.53
2023-03-17T21:24:49.529Z,44.44
2023-03-17T21:27:15.832Z,44.69
2023-03-17T21:29:42.142Z,44.93
2023-03-17T21:32:08.522Z,44.86
2023-03-17T21:34:34.926Z,44.89
2023-03-17T21:37:01.266Z,45.57
2023-03-17T21:39:29.522Z,45.21
2023-03-17T21:41:56.089Z,45.01
2023-03-17T21:44:22.404Z,44.73
2023-03-17T21:46:48.711Z,44.49
2023-03-17T21:49:15.020Z,44.61
2023-03-17T21:51:41.353Z,44.50
2023-03-17T21:54:07.670Z,44.49
2023-03-17T21:56:33.985Z,44.67
2023-03-17T21:59:00.314Z,44.60
2023-03-17T22:01:26.652Z,45.25
2023-03-17T22:03:52.969Z,45.31
2023-03-17T22:06:19.271Z,45.27
2023-03-17T22:08:45.681Z,44.68
2023-03-17T22:11:11.989Z,45.37
2023-03-17T22:13:38.298Z,45.03
2023-03-17T22:16:04.610Z,44.76
2023-03-17T22:18:30.913Z,45.39
2023-03-17T22:20:57.215Z,45.00
2023-03-17T22:23:23.533Z,45.16
2023-03-17T22:25:49.843Z,45.43
2023-03-17T22:28:16.161Z,45.60
2023-03-17T22:30:42.467Z,45.22
2023-03-17T22:33:08.915Z,44.89
2023-03-17T22:35:35.303Z,45.32
2023-03-17T22:38:01.657Z,45.32
2023-03-17T22:40:27.988Z,45.82
2023-03-17T22:42:54.319Z,45.96
2023-03-17T22:45:20.663Z,45.67
2023-03-17T22:47:46.986Z,46.13
2023-03-17T22:50:13.293Z,46.82
2023-03-17T22:52:39.628Z,46.93
2023-03-17T22:55:05.940Z,46.15
2023-03-17T22:57:32.251Z,46.40
2023-03-17T22:59:58.583Z,46.11
2023-03-17T23:02:24.930Z,46.16
2023-03-17T23:04:51.253Z,45.68
2023-03-17T23:07:17.569Z,45.59
2023-03-17T23:09:43.908Z,46.22
2023-03-17T23:12:10.217Z,46.14
2023-03-17T23:14:36.569Z,45.79
2023-03-17T23:17:02.897Z,45.23
2023-03-17T23:19:29.270Z,45.71
2023-03-17T23:21:55.590Z,45.50
2023-03-17T23:24:21.928Z,45.77
2023-03-17T23:26:48.234Z,45.67
2023-03-17T23:29:14.538Z,45.92
2023-03-17T23:31:40.842Z,45.98
2023-03-17T23:34:07.164Z,45.70
2023-03-17T23:36:33.499Z,45.93
2023-03-17T23:38:59.822Z,45.59
2023-03-17T23:41:26.142Z,45.75
2023-03-17T23:43:52.455Z,45.81
2023-03-17T23:46:18.940Z,45.18
2023-03-17T23:48:45.302Z,45.64
2023-03-17T23:51:11.619Z,46.21
2023-03-17T23:53:37.936Z,45.70
2023-03-17T23:56:04.298Z,46.20
2023-03-17T23:58:30.615Z,46.14
